aviador You're here:

KVDF Decoded Metar

TAMPA/VANDENBURG in FL, USA
Report Time2017-10-23 23:55:00
UTC Time2017-10-24 00:14:25
Flight Rules vfr VFR
Wind300° at 03 kt
W.Decomp.*RWY 36: 1.7 kt HW 2.5 kt LCW
RWY 23: 0.8 kt HW 2.9 kt RCW
W.Rank300° ranks 27
Current wind is below 300° avg. (5.7)
Visibility9999 m
Phenomena:Light Rain
Clouds:Scattered 055 Hf
Scattered 065 Hf
Expected CloudBase > 400 ft AGL from Temp-Dew spread
CeilingNone
Temp23°C (ISA +8)
Dew Point22°C (94% RH)
QNH1015 hPa
Density Alt1,237 ft
Elevation23 ft
Report Wrong Elevation
Raw Report
METAR KVDF 232355Z AUTO 30003KT 10SM -RA SCT055 SCT065 23/22 A2997
RMK AO2=

Extra information for KVDF:More info

Metar Taf Metar & Taf Last 4 Metars F.Rules Stats Wind Profile Meteogram Temp Stats Airport Information Weather charts Add Link Nearby VenuesMetar ALERT Operation Metar Decoded Social comments

AIRNAV info for KVDF